createdAt,value
2023-01-23T00:00:53.721Z,1030.64
2023-01-23T00:01:53.776Z,1030.64
2023-01-23T00:02:53.691Z,1030.68
2023-01-23T00:03:53.715Z,1030.63
2023-01-23T00:04:53.666Z,1030.66
2023-01-23T00:05:53.660Z,1030.63
2023-01-23T00:06:53.649Z,1030.66
2023-01-23T00:07:53.649Z,1030.65
2023-01-23T00:08:53.641Z,1030.66
2023-01-23T00:09:53.629Z,1030.67
2023-01-23T00:10:53.715Z,1030.70
2023-01-23T00:11:53.595Z,1030.68
2023-01-23T00:12:53.582Z,1030.67
2023-01-23T00:13:53.628Z,1030.67
2023-01-23T00:14:53.565Z,1030.68
2023-01-23T00:15:53.597Z,1030.64
2023-01-23T00:16:53.549Z,1030.61
2023-01-23T00:17:53.530Z,1030.66
2023-01-23T00:18:53.518Z,1030.66
2023-01-23T00:19:53.562Z,1030.64
2023-01-23T00:20:53.503Z,1030.67
2023-01-23T00:21:53.487Z,1030.62
2023-01-23T00:22:53.474Z,1030.61
2023-01-23T00:23:53.469Z,1030.63
2023-01-23T00:24:53.482Z,1030.65
2023-01-23T00:25:53.473Z,1030.65
2023-01-23T00:26:53.558Z,1030.70
2023-01-23T00:27:53.430Z,1030.60
2023-01-23T00:28:53.410Z,1030.62
2023-01-23T00:29:53.406Z,1030.71
2023-01-23T00:30:53.571Z,1030.75
2023-01-23T00:31:53.456Z,1030.65
2023-01-23T00:32:53.369Z,1030.74
2023-01-23T00:33:53.359Z,1030.66
2023-01-23T00:34:53.356Z,1030.71
2023-01-23T00:35:53.348Z,1030.68
2023-01-23T00:36:53.337Z,1030.71
2023-01-23T00:37:53.425Z,1030.69
2023-01-23T00:38:53.306Z,1030.73
2023-01-23T00:39:53.303Z,1030.73
2023-01-23T00:40:53.305Z,1030.70
2023-01-23T00:41:53.281Z,1030.67
2023-01-23T00:42:53.385Z,1030.73
2023-01-23T00:43:53.273Z,1030.68
2023-01-23T00:44:53.255Z,1030.74
2023-01-23T00:45:53.232Z,1030.72
2023-01-23T00:46:53.247Z,1030.80
2023-01-23T00:47:53.216Z,1030.77
2023-01-23T00:48:53.201Z,1030.84
2023-01-23T00:49:53.202Z,1030.80
2023-01-23T00:50:53.264Z,1030.82
2023-01-23T00:51:53.181Z,1030.77
2023-01-23T00:52:53.168Z,1030.85
2023-01-23T00:53:53.160Z,1030.78
2023-01-23T00:54:53.141Z,1030.79
2023-01-23T00:55:53.139Z,1030.88
2023-01-23T00:56:53.125Z,1030.85
2023-01-23T00:57:53.110Z,1030.80
2023-01-23T00:58:53.225Z,1030.82
2023-01-23T00:59:53.085Z,1030.84
2023-01-23T01:00:53.077Z,1030.82
2023-01-23T01:01:53.123Z,1030.87
2023-01-23T01:02:53.107Z,1030.84
2023-01-23T01:03:53.086Z,1030.90
2023-01-23T01:04:53.039Z,1030.94
2023-01-23T01:05:53.048Z,1030.92
2023-01-23T01:06:53.027Z,1031.01
2023-01-23T01:07:53.024Z,1030.96
2023-01-23T01:08:53.008Z,1031.05
2023-01-23T01:09:52.996Z,1030.99
2023-01-23T01:10:52.973Z,1031.05
2023-01-23T01:11:52.968Z,1031.08
2023-01-23T01:12:52.959Z,1031.14
2023-01-23T01:13:52.939Z,1031.13
2023-01-23T01:14:53.058Z,1031.11
2023-01-23T01:15:52.976Z,1031.13
2023-01-23T01:16:52.909Z,1031.16
2023-01-23T01:17:52.912Z,1031.09
2023-01-23T01:18:52.889Z,1031.08
2023-01-23T01:19:52.912Z,1031.09
2023-01-23T01:20:52.871Z,1031.09
2023-01-23T01:21:52.861Z,1031.09
2023-01-23T01:22:52.852Z,1031.11
2023-01-23T01:23:52.848Z,1031.08
2023-01-23T01:24:52.825Z,1031.13
2023-01-23T01:25:52.834Z,1031.06
2023-01-23T01:26:52.813Z,1031.10
2023-01-23T01:27:52.791Z,1031.10
2023-01-23T01:28:52.781Z,1031.05
2023-01-23T01:29:52.806Z,1031.12
2023-01-23T01:30:53.007Z,1031.09
2023-01-23T01:31:52.882Z,1031.07
2023-01-23T01:32:52.739Z,1031.10
2023-01-23T01:33:52.726Z,1031.11
2023-01-23T01:34:52.728Z,1031.06
2023-01-23T01:35:52.730Z,1031.10
2023-01-23T01:36:52.709Z,1031.15
2023-01-23T01:37:52.708Z,1031.13
2023-01-23T01:38:52.698Z,1031.16
2023-01-23T01:39:52.665Z,1031.14
2023-01-23T01:40:52.669Z,1031.16
2023-01-23T01:41:52.650Z,1031.20
2023-01-23T01:42:52.633Z,1031.21
2023-01-23T01:43:52.641Z,1031.19
2023-01-23T01:44:52.631Z,1031.28
2023-01-23T01:46:00.262Z,1031.21
2023-01-23T01:47:00.129Z,1031.22
2023-01-23T01:48:01.559Z,1031.28
2023-01-23T01:48:52.569Z,1031.29
2023-01-23T01:49:52.560Z,1031.26
2023-01-23T01:50:52.602Z,1031.31
2023-01-23T01:51:52.550Z,1031.32
2023-01-23T01:52:52.530Z,1031.27
2023-01-23T01:53:52.541Z,1031.32
2023-01-23T01:54:52.511Z,1031.30
2023-01-23T01:55:52.496Z,1031.27
2023-01-23T01:56:52.495Z,1031.31
2023-01-23T01:57:52.496Z,1031.30
2023-01-23T01:58:52.482Z,1031.27
2023-01-23T01:59:52.480Z,1031.28
2023-01-23T02:00:52.500Z,1031.24
2023-01-23T02:01:52.589Z,1031.28
2023-01-23T02:02:52.427Z,1031.22
2023-01-23T02:03:52.430Z,1031.26
2023-01-23T02:04:52.417Z,1031.27
2023-01-23T02:05:52.408Z,1031.32
2023-01-23T02:06:52.386Z,1031.32
2023-01-23T02:07:52.381Z,1031.31
2023-01-23T02:08:52.370Z,1031.31
2023-01-23T02:09:52.359Z,1031.35
2023-01-23T02:10:52.346Z,1031.42
2023-01-23T02:11:52.348Z,1031.36
2023-01-23T02:12:52.334Z,1031.40
2023-01-23T02:13:52.322Z,1031.43
2023-01-23T02:14:52.312Z,1031.33
2023-01-23T02:15:52.296Z,1031.41
2023-01-23T02:16:52.321Z,1031.35
2023-01-23T02:17:52.396Z,1031.36
2023-01-23T02:18:52.266Z,1031.43
2023-01-23T02:19:52.281Z,1031.38
2023-01-23T02:20:52.253Z,1031.41
2023-01-23T02:21:52.238Z,1031.37
2023-01-23T02:22:52.216Z,1031.37
2023-01-23T02:23:52.215Z,1031.35
2023-01-23T02:24:52.195Z,1031.32
2023-01-23T02:25:52.213Z,1031.34
2023-01-23T02:26:52.196Z,1031.34
2023-01-23T02:27:52.171Z,1031.34
2023-01-23T02:28:52.160Z,1031.27
2023-01-23T02:29:52.168Z,1031.38
2023-01-23T02:30:52.174Z,1031.34
2023-01-23T02:31:52.194Z,1031.32
2023-01-23T02:32:52.112Z,1031.27
2023-01-23T02:33:52.223Z,1031.30
2023-01-23T02:34:52.095Z,1031.29
2023-01-23T02:35:52.113Z,1031.36
2023-01-23T02:36:52.084Z,1031.33
2023-01-23T02:37:52.089Z,1031.32
2023-01-23T02:38:52.049Z,1031.35
2023-01-23T02:39:52.046Z,1031.35
2023-01-23T02:40:52.045Z,1031.36
2023-01-23T02:41:52.048Z,1031.38
2023-01-23T02:42:52.022Z,1031.36
2023-01-23T02:43:51.996Z,1031.37
2023-01-23T02:44:51.992Z,1031.32
2023-01-23T02:45:52.000Z,1031.41
2023-01-23T02:46:51.971Z,1031.42
2023-01-23T02:47:51.973Z,1031.38
2023-01-23T02:48:51.942Z,1031.39
2023-01-23T02:49:52.045Z,1031.46
2023-01-23T02:50:51.949Z,1031.41
2023-01-23T02:51:51.920Z,1031.44
2023-01-23T02:52:51.910Z,1031.45
2023-01-23T02:53:51.899Z,1031.46
2023-01-23T02:54:51.917Z,1031.49
2023-01-23T02:55:51.878Z,1031.55
2023-01-23T02:56:51.866Z,1031.61
2023-01-23T02:57:51.850Z,1031.58
2023-01-23T02:58:51.852Z,1031.57
2023-01-23T02:59:51.855Z,1031.55
2023-01-23T03:00:51.890Z,1031.63
2023-01-23T03:01:51.830Z,1031.62
2023-01-23T03:02:51.816Z,1031.59
2023-01-23T03:03:51.786Z,1031.67
2023-01-23T03:04:51.809Z,1031.60
2023-01-23T03:05:51.785Z,1031.65
2023-01-23T03:06:51.786Z,1031.56
2023-01-23T03:07:51.746Z,1031.58
2023-01-23T03:08:51.736Z,1031.55
2023-01-23T03:09:51.722Z,1031.62
2023-01-23T03:10:51.730Z,1031.58
2023-01-23T03:11:51.721Z,1031.69
2023-01-23T03:12:51.735Z,1031.67
2023-01-23T03:13:51.681Z,1031.60
2023-01-23T03:14:51.674Z,1031.66
2023-01-23T03:15:51.675Z,1031.63
2023-01-23T03:16:51.684Z,1031.67
2023-01-23T03:17:51.641Z,1031.64
2023-01-23T03:18:54.850Z,1031.67
2023-01-23T03:19:51.619Z,1031.65
2023-01-23T03:20:51.629Z,1031.70
2023-01-23T03:21:51.722Z,1031.70
2023-01-23T03:22:51.602Z,1031.75
2023-01-23T03:23:51.587Z,1031.75
2023-01-23T03:24:51.594Z,1031.81
2023-01-23T03:25:51.567Z,1031.78
2023-01-23T03:26:51.546Z,1031.80
2023-01-23T03:27:51.548Z,1031.80
2023-01-23T03:28:51.525Z,1031.79
2023-01-23T03:29:51.519Z,1031.77
2023-01-23T03:30:51.519Z,1031.79
2023-01-23T03:31:51.670Z,1031.83
2023-01-23T03:32:51.490Z,1031.82
2023-01-23T03:33:51.490Z,1031.81
2023-01-23T03:34:51.467Z,1031.85
2023-01-23T03:35:51.455Z,1031.85
2023-01-23T03:36:51.456Z,1031.90
2023-01-23T03:37:51.564Z,1031.89
2023-01-23T03:38:51.420Z,1031.94
2023-01-23T03:39:51.418Z,1031.94
2023-01-23T03:40:51.410Z,1031.91
2023-01-23T03:41:51.394Z,1031.94
2023-01-23T03:42:51.395Z,1031.91
2023-01-23T03:43:51.411Z,1031.91
2023-01-23T03:44:51.361Z,1031.97
2023-01-23T03:45:51.448Z,1031.93
2023-01-23T03:46:51.335Z,1031.98
2023-01-23T03:47:51.324Z,1031.94
2023-01-23T03:48:51.336Z,1031.97
2023-01-23T03:49:51.355Z,1031.98
2023-01-23T03:50:51.337Z,1032.00
2023-01-23T03:51:51.302Z,1031.96
2023-01-23T03:52:51.270Z,1032.01
2023-01-23T03:53:51.385Z,1032.00
2023-01-23T03:54:51.265Z,1032.07
2023-01-23T03:55:51.242Z,1032.05
2023-01-23T03:56:51.246Z,1032.03
2023-01-23T03:57:51.237Z,1032.04
2023-01-23T03:58:51.209Z,1032.05
2023-01-23T03:59:51.207Z,1032.07
2023-01-23T04:00:51.249Z,1032.07
2023-01-23T04:01:51.201Z,1032.09
2023-01-23T04:02:51.284Z,1032.10
2023-01-23T04:03:58.703Z,1032.13
2023-01-23T04:04:58.697Z,1032.04
2023-01-23T04:05:58.192Z,1032.12
2023-01-23T04:06:51.129Z,1032.15
2023-01-23T04:07:51.135Z,1032.17
2023-01-23T04:08:51.115Z,1032.15
2023-01-23T04:09:51.241Z,1032.17
2023-01-23T04:10:51.082Z,1032.18
2023-01-23T04:11:51.097Z,1032.23
2023-01-23T04:12:51.080Z,1032.23
2023-01-23T04:13:51.058Z,1032.29
2023-01-23T04:14:51.045Z,1032.31
2023-01-23T04:15:51.059Z,1032.26
2023-01-23T04:16:51.058Z,1032.24
2023-01-23T04:17:51.030Z,1032.20
2023-01-23T04:18:51.003Z,1032.23
2023-01-23T04:19:51.010Z,1032.32
2023-01-23T04:20:50.993Z,1032.21
2023-01-23T04:21:50.986Z,1032.23
2023-01-23T04:22:50.969Z,1032.22
2023-01-23T04:23:50.955Z,1032.20
2023-01-23T04:24:50.949Z,1032.20
2023-01-23T04:25:51.051Z,1032.24
2023-01-23T04:26:50.936Z,1032.27
2023-01-23T04:27:50.912Z,1032.21
2023-01-23T04:28:50.926Z,1032.27
2023-01-23T04:29:50.911Z,1032.26
2023-01-23T04:30:50.938Z,1032.31
2023-01-23T04:31:50.995Z,1032.30
2023-01-23T04:32:50.856Z,1032.38
2023-01-23T04:33:50.856Z,1032.33
2023-01-23T04:34:50.853Z,1032.27
2023-01-23T04:35:50.833Z,1032.26
2023-01-23T04:36:50.809Z,1032.25
2023-01-23T04:37:50.801Z,1032.27
2023-01-23T04:38:50.800Z,1032.26
2023-01-23T04:39:50.812Z,1032.35
2023-01-23T04:40:50.798Z,1032.33
2023-01-23T04:41:50.901Z,1032.29
2023-01-23T04:42:50.747Z,1032.30
2023-01-23T04:43:50.744Z,1032.32
2023-01-23T04:44:50.727Z,1032.32
2023-01-23T04:45:50.731Z,1032.26
2023-01-23T04:46:50.740Z,1032.28
2023-01-23T04:47:50.723Z,1032.21
2023-01-23T04:48:50.687Z,1032.21
2023-01-23T04:49:50.692Z,1032.19
2023-01-23T04:50:50.750Z,1032.18
2023-01-23T04:51:50.666Z,1032.14
2023-01-23T04:52:50.661Z,1032.12
2023-01-23T04:53:50.634Z,1032.16
2023-01-23T04:54:50.626Z,1032.14
2023-01-23T04:55:50.620Z,1032.15
2023-01-23T04:56:50.611Z,1032.20
2023-01-23T04:57:50.718Z,1032.14
2023-01-23T04:58:50.633Z,1032.17
2023-01-23T04:59:50.581Z,1032.17
2023-01-23T05:00:50.573Z,1032.18
2023-01-23T05:01:50.569Z,1032.17
2023-01-23T05:02:50.587Z,1032.08
2023-01-23T05:03:50.543Z,1032.14
2023-01-23T05:04:50.549Z,1032.17
2023-01-23T05:05:50.508Z,1032.15
2023-01-23T05:06:50.508Z,1032.20
2023-01-23T05:07:50.521Z,1032.17
2023-01-23T05:08:52.433Z,1032.18
2023-01-23T05:09:50.483Z,1032.17
2023-01-23T05:10:50.476Z,1032.26
2023-01-23T05:11:50.467Z,1032.19
2023-01-23T05:12:50.453Z,1032.25
2023-01-23T05:13:50.447Z,1032.25
2023-01-23T05:14:50.429Z,1032.24
2023-01-23T05:15:50.475Z,1032.23
2023-01-23T05:16:50.399Z,1032.35
2023-01-23T05:17:50.409Z,1032.24
2023-01-23T05:18:50.380Z,1032.30
2023-01-23T05:19:50.376Z,1032.32
2023-01-23T05:20:50.359Z,1032.29
2023-01-23T05:21:50.353Z,1032.29
2023-01-23T05:22:50.338Z,1032.36
2023-01-23T05:23:50.322Z,1032.29
2023-01-23T05:24:50.359Z,1032.30
2023-01-23T05:25:50.299Z,1032.33
2023-01-23T05:26:50.304Z,1032.33
2023-01-23T05:27:50.292Z,1032.35
2023-01-23T05:28:50.268Z,1032.33
2023-01-23T05:29:50.395Z,1032.34
2023-01-23T05:30:50.397Z,1032.37
2023-01-23T05:31:50.284Z,1032.37
2023-01-23T05:32:50.236Z,1032.43
2023-01-23T05:33:50.232Z,1032.46
2023-01-23T05:34:50.205Z,1032.39
2023-01-23T05:35:50.213Z,1032.40
2023-01-23T05:36:50.218Z,1032.39
2023-01-23T05:37:50.181Z,1032.37
2023-01-23T05:38:50.165Z,1032.41
2023-01-23T05:39:50.160Z,1032.34
2023-01-23T05:40:50.143Z,1032.34
2023-01-23T05:41:50.137Z,1032.31
2023-01-23T05:42:50.137Z,1032.39
2023-01-23T05:43:50.129Z,1032.36
2023-01-23T05:44:50.098Z,1032.41
2023-01-23T05:45:50.256Z,1032.43
2023-01-23T05:46:50.101Z,1032.50
2023-01-23T05:47:50.073Z,1032.45
2023-01-23T05:48:50.064Z,1032.44
2023-01-23T05:49:50.063Z,1032.48
2023-01-23T05:50:50.118Z,1032.49
2023-01-23T05:51:50.033Z,1032.45
2023-01-23T05:52:50.024Z,1032.47
2023-01-23T05:53:50.010Z,1032.42
2023-01-23T05:54:49.994Z,1032.48
2023-01-23T05:55:50.013Z,1032.47
2023-01-23T05:56:49.985Z,1032.45
2023-01-23T05:57:49.982Z,1032.44
2023-01-23T05:58:49.966Z,1032.45
2023-01-23T05:59:49.945Z,1032.46
2023-01-23T06:00:49.941Z,1032.49
2023-01-23T06:01:50.037Z,1032.48
2023-01-23T06:02:49.973Z,1032.52
2023-01-23T06:03:49.999Z,1032.55
2023-01-23T06:04:49.897Z,1032.59
2023-01-23T06:05:49.893Z,1032.65
2023-01-23T06:06:49.868Z,1032.64
2023-01-23T06:07:49.879Z,1032.65
2023-01-23T06:08:49.863Z,1032.65
2023-01-23T06:09:49.847Z,1032.66
2023-01-23T06:10:49.835Z,1032.68
2023-01-23T06:11:49.827Z,1032.65
2023-01-23T06:12:49.814Z,1032.63
2023-01-23T06:13:49.821Z,1032.68
2023-01-23T06:14:49.807Z,1032.71
2023-01-23T06:15:49.862Z,1032.71
2023-01-23T06:16:49.763Z,1032.74
2023-01-23T06:17:49.971Z,1032.77
2023-01-23T06:18:49.748Z,1032.70
2023-01-23T06:19:49.739Z,1032.74
2023-01-23T06:20:49.739Z,1032.78
2023-01-23T06:21:49.711Z,1032.77
2023-01-23T06:22:49.705Z,1032.84
2023-01-23T06:23:49.697Z,1032.85
2023-01-23T06:24:58.613Z,1032.86
2023-01-23T06:25:49.674Z,1032.85
2023-01-23T06:26:49.663Z,1032.84
2023-01-23T06:27:49.653Z,1032.78
2023-01-23T06:28:49.637Z,1032.77
2023-01-23T06:29:49.638Z,1032.79
2023-01-23T06:30:49.758Z,1032.78
2023-01-23T06:31:49.678Z,1032.81
2023-01-23T06:32:49.605Z,1032.81
2023-01-23T06:33:49.702Z,1032.84
2023-01-23T06:34:49.606Z,1032.84
2023-01-23T06:35:49.574Z,1032.83
2023-01-23T06:36:49.555Z,1032.83
2023-01-23T06:37:49.544Z,1032.80
2023-01-23T06:38:49.536Z,1032.79
2023-01-23T06:39:49.528Z,1032.84
2023-01-23T06:40:49.535Z,1032.83
2023-01-23T06:41:49.511Z,1032.87
2023-01-23T06:42:49.500Z,1032.89
2023-01-23T06:43:49.487Z,1032.92
2023-01-23T06:44:49.479Z,1032.94
2023-01-23T06:45:49.493Z,1032.94
2023-01-23T06:46:49.558Z,1032.89
2023-01-23T06:47:49.465Z,1032.90
2023-01-23T06:48:49.439Z,1032.94
2023-01-23T06:49:49.585Z,1033.00
2023-01-23T06:50:49.496Z,1032.96
2023-01-23T06:51:49.692Z,1033.01
2023-01-23T06:52:49.390Z,1032.99
2023-01-23T06:53:49.379Z,1032.97
2023-01-23T06:54:49.405Z,1033.03
2023-01-23T06:55:49.369Z,1033.08
2023-01-23T06:56:49.360Z,1033.13
2023-01-23T06:57:49.347Z,1033.07
2023-01-23T06:58:49.335Z,1033.10
2023-01-23T06:59:49.312Z,1033.11
2023-01-23T07:00:49.327Z,1033.09
2023-01-23T07:01:49.375Z,1033.10
2023-01-23T07:02:49.329Z,1033.12
2023-01-23T07:03:49.287Z,1033.09
2023-01-23T07:04:49.274Z,1033.11
2023-01-23T07:05:49.277Z,1033.09
2023-01-23T07:06:49.263Z,1033.07
2023-01-23T07:07:49.260Z,1033.06
2023-01-23T07:08:49.218Z,1033.09
2023-01-23T07:09:49.245Z,1033.13
2023-01-23T07:10:49.209Z,1033.18
2023-01-23T07:11:49.211Z,1033.12
2023-01-23T07:12:49.184Z,1033.09
2023-01-23T07:13:49.185Z,1033.13
2023-01-23T07:14:49.167Z,1033.15
2023-01-23T07:15:49.246Z,1033.18
2023-01-23T07:16:49.141Z,1033.18
2023-01-23T07:17:49.133Z,1033.24
2023-01-23T07:18:49.132Z,1033.23
2023-01-23T07:19:49.126Z,1033.18
2023-01-23T07:20:49.110Z,1033.10
2023-01-23T07:21:49.206Z,1033.18
2023-01-23T07:22:49.072Z,1033.18
2023-01-23T07:23:49.069Z,1033.14
2023-01-23T07:24:49.065Z,1033.21
2023-01-23T07:25:49.058Z,1033.17
2023-01-23T07:26:49.058Z,1033.19
2023-01-23T07:27:49.023Z,1033.23
2023-01-23T07:28:49.010Z,1033.30
2023-01-23T07:29:49.025Z,1033.30
2023-01-23T07:30:49.013Z,1033.35
2023-01-23T07:31:49.055Z,1033.37
2023-01-23T07:32:49.003Z,1033.44
2023-01-23T07:33:48.975Z,1033.40
2023-01-23T07:34:48.965Z,1033.42
2023-01-23T07:35:48.951Z,1033.44
2023-01-23T07:36:48.953Z,1033.39
2023-01-23T07:37:49.060Z,1033.42
2023-01-23T07:38:48.932Z,1033.45
2023-01-23T07:39:48.896Z,1033.47
2023-01-23T07:40:48.886Z,1033.45
2023-01-23T07:41:48.881Z,1033.44
2023-01-23T07:42:48.881Z,1033.45
2023-01-23T07:43:48.881Z,1033.47
2023-01-23T07:44:48.843Z,1033.49
2023-01-23T07:45:48.848Z,1033.52
2023-01-23T07:46:48.913Z,1033.44
2023-01-23T07:47:48.832Z,1033.44
2023-01-23T07:48:48.826Z,1033.45
2023-01-23T07:49:48.796Z,1033.46
2023-01-23T07:50:48.796Z,1033.50
2023-01-23T07:51:48.775Z,1033.48
2023-01-23T07:52:48.794Z,1033.38
2023-01-23T07:53:48.877Z,1033.43
2023-01-23T07:54:48.867Z,1033.46
2023-01-23T07:55:48.733Z,1033.35
2023-01-23T07:56:48.726Z,1033.42
2023-01-23T07:57:48.712Z,1033.39
2023-01-23T07:58:48.710Z,1033.41
2023-01-23T07:59:48.727Z,1033.38
2023-01-23T08:00:48.700Z,1033.28
2023-01-23T08:01:48.676Z,1033.42
2023-01-23T08:02:48.701Z,1033.35
2023-01-23T08:03:48.692Z,1033.31
2023-01-23T08:04:48.651Z,1033.37
2023-01-23T08:05:48.651Z,1033.29
2023-01-23T08:06:48.617Z,1033.34
2023-01-23T08:07:48.605Z,1033.28
2023-01-23T08:08:48.597Z,1033.29
2023-01-23T08:09:48.770Z,1033.33
2023-01-23T08:10:48.593Z,1033.29
2023-01-23T08:11:48.577Z,1033.34
2023-01-23T08:12:48.559Z,1033.28
2023-01-23T08:13:48.544Z,1033.30
2023-01-23T08:14:48.635Z,1033.27
2023-01-23T08:15:48.532Z,1033.31
2023-01-23T08:16:48.507Z,1033.30
2023-01-23T08:17:48.523Z,1033.33
2023-01-23T08:18:48.492Z,1033.32
2023-01-23T08:19:48.477Z,1033.33
2023-01-23T08:20:48.473Z,1033.29
2023-01-23T08:21:48.487Z,1033.39
2023-01-23T08:22:48.447Z,1033.39
2023-01-23T08:23:48.439Z,1033.37
2023-01-23T08:24:48.467Z,1033.35
2023-01-23T08:25:50.032Z,1033.35
2023-01-23T08:26:48.410Z,1033.42
2023-01-23T08:27:48.404Z,1033.40
2023-01-23T08:28:48.380Z,1033.45
2023-01-23T08:29:48.388Z,1033.47
2023-01-23T08:30:48.400Z,1033.50
2023-01-23T08:31:48.473Z,1033.51
2023-01-23T08:32:48.343Z,1033.51
2023-01-23T08:33:48.343Z,1033.51
2023-01-23T08:34:48.322Z,1033.58
2023-01-23T08:35:48.306Z,1033.59
2023-01-23T08:36:48.318Z,1033.59
2023-01-23T08:37:48.290Z,1033.56
2023-01-23T08:38:48.312Z,1033.60
2023-01-23T08:39:48.269Z,1033.72
2023-01-23T08:40:48.262Z,1033.64
2023-01-23T08:41:48.350Z,1033.70
2023-01-23T08:42:48.250Z,1033.69
2023-01-23T08:43:48.244Z,1033.68
2023-01-23T08:44:48.218Z,1033.79
2023-01-23T08:45:48.237Z,1033.82
2023-01-23T08:46:48.191Z,1033.80
2023-01-23T08:47:48.176Z,1033.85
2023-01-23T08:48:48.175Z,1033.82
2023-01-23T08:49:48.177Z,1033.86
2023-01-23T08:50:48.155Z,1033.89
2023-01-23T08:51:48.142Z,1033.91
2023-01-23T08:52:48.143Z,1033.94
2023-01-23T08:53:48.121Z,1034.01
2023-01-23T08:54:48.125Z,1033.93
2023-01-23T08:55:48.111Z,1033.97
2023-01-23T08:56:48.091Z,1033.99
2023-01-23T08:57:48.193Z,1034.07
2023-01-23T08:58:48.075Z,1033.98
2023-01-23T08:59:48.062Z,1033.99
2023-01-23T09:00:48.129Z,1034.04
2023-01-23T09:01:48.126Z,1034.08
2023-01-23T09:02:48.041Z,1034.11
2023-01-23T09:03:48.016Z,1034.12
2023-01-23T09:04:48.001Z,1034.08
2023-01-23T09:05:48.006Z,1034.17
2023-01-23T09:06:48.002Z,1034.13
2023-01-23T09:07:47.973Z,1034.11
2023-01-23T09:08:47.977Z,1034.16
2023-01-23T09:09:47.942Z,1034.14
2023-01-23T09:10:47.942Z,1034.14
2023-01-23T09:11:47.924Z,1034.19
2023-01-23T09:12:47.968Z,1034.24
2023-01-23T09:13:48.023Z,1034.21
2023-01-23T09:14:47.891Z,1034.22
2023-01-23T09:15:47.892Z,1034.21
2023-01-23T09:16:47.943Z,1034.22
2023-01-23T09:17:47.875Z,1034.22
2023-01-23T09:18:47.861Z,1034.22
2023-01-23T09:19:47.847Z,1034.20
2023-01-23T09:20:47.836Z,1034.25
2023-01-23T09:21:47.818Z,1034.29
2023-01-23T09:22:47.828Z,1034.28
2023-01-23T09:23:55.326Z,1034.21
2023-01-23T09:24:47.790Z,1034.25
2023-01-23T09:25:47.779Z,1034.24
2023-01-23T09:26:47.783Z,1034.25
2023-01-23T09:27:47.752Z,1034.29
2023-01-23T09:28:47.754Z,1034.24
2023-01-23T09:29:47.857Z,1034.30
2023-01-23T09:30:47.767Z,1034.34
2023-01-23T09:31:47.840Z,1034.37
2023-01-23T09:32:47.717Z,1034.40
2023-01-23T09:33:47.692Z,1034.34
2023-01-23T09:34:47.689Z,1034.39
2023-01-23T09:35:47.676Z,1034.34
2023-01-23T09:36:47.667Z,1034.37
2023-01-23T09:37:47.655Z,1034.41
2023-01-23T09:38:47.635Z,1034.37
2023-01-23T09:39:47.626Z,1034.32
2023-01-23T09:40:47.635Z,1034.33
2023-01-23T09:41:47.621Z,1034.41
2023-01-23T09:42:47.591Z,1034.44
2023-01-23T09:43:47.598Z,1034.37
2023-01-23T09:44:47.579Z,1034.48
2023-01-23T09:45:47.625Z,1034.46
2023-01-23T09:46:47.560Z,1034.42
2023-01-23T09:47:47.550Z,1034.48
2023-01-23T09:48:47.530Z,1034.40
2023-01-23T09:49:47.519Z,1034.39
2023-01-23T09:50:47.521Z,1034.44
2023-01-23T09:51:47.505Z,1034.43
2023-01-23T09:52:47.500Z,1034.43
2023-01-23T09:53:47.485Z,1034.52
2023-01-23T09:54:47.474Z,1034.46
2023-01-23T09:55:47.460Z,1034.50
2023-01-23T09:56:47.450Z,1034.52
2023-01-23T09:57:47.442Z,1034.52
2023-01-23T09:58:47.455Z,1034.52
2023-01-23T09:59:59.763Z,1034.50
2023-01-23T10:00:48.435Z,1034.47
2023-01-23T10:01:47.510Z,1034.45
2023-01-23T10:02:47.530Z,1034.48
2023-01-23T10:03:47.380Z,1034.45
2023-01-23T10:04:47.395Z,1034.43
2023-01-23T10:05:47.352Z,1034.37
2023-01-23T10:06:47.343Z,1034.36
2023-01-23T10:07:47.328Z,1034.38
2023-01-23T10:08:47.331Z,1034.34
2023-01-23T10:09:47.313Z,1034.45
2023-01-23T10:10:47.319Z,1034.46
2023-01-23T10:11:47.284Z,1034.40
2023-01-23T10:12:47.277Z,1034.49
2023-01-23T10:13:47.272Z,1034.51
2023-01-23T10:14:47.264Z,1034.49
2023-01-23T10:15:47.241Z,1034.48
2023-01-23T10:16:50.847Z,1034.59
2023-01-23T10:17:47.247Z,1034.54
2023-01-23T10:18:47.222Z,1034.53
2023-01-23T10:19:47.222Z,1034.55
2023-01-23T10:20:47.198Z,1034.55
2023-01-23T10:21:47.198Z,1034.52
2023-01-23T10:22:47.179Z,1034.55
2023-01-23T10:23:47.207Z,1034.59
2023-01-23T10:24:47.171Z,1034.63
2023-01-23T10:25:47.140Z,1034.56
2023-01-23T10:26:47.134Z,1034.66
2023-01-23T10:27:47.116Z,1034.63
2023-01-23T10:28:47.115Z,1034.61
2023-01-23T10:29:47.117Z,1034.55
2023-01-23T10:30:47.322Z,1034.60
2023-01-23T10:31:47.120Z,1034.58
2023-01-23T10:32:47.095Z,1034.57
2023-01-23T10:33:47.176Z,1034.59
2023-01-23T10:34:47.095Z,1034.63
2023-01-23T10:35:47.046Z,1034.58
2023-01-23T10:36:54.113Z,1034.58
2023-01-23T10:37:48.020Z,1034.57
2023-01-23T10:38:47.001Z,1034.57
2023-01-23T10:39:47.022Z,1034.58
2023-01-23T10:40:47.007Z,1034.64
2023-01-23T10:41:51.107Z,1034.68
2023-01-23T10:42:46.968Z,1034.58
2023-01-23T10:43:46.985Z,1034.61
2023-01-23T10:44:46.939Z,1034.62
2023-01-23T10:45:47.024Z,1034.61
2023-01-23T10:46:46.956Z,1034.63
2023-01-23T10:47:50.079Z,1034.69
2023-01-23T10:48:47.906Z,1034.65
2023-01-23T10:49:47.039Z,1034.60
2023-01-23T10:50:46.877Z,1034.54
2023-01-23T10:51:46.918Z,1034.56
2023-01-23T10:52:46.892Z,1034.52
2023-01-23T10:53:46.854Z,1034.57
2023-01-23T10:54:54.422Z,1034.51
2023-01-23T10:55:46.854Z,1034.54
2023-01-23T10:56:46.835Z,1034.60
2023-01-23T10:57:46.830Z,1034.60
2023-01-23T10:58:46.795Z,1034.61
2023-01-23T10:59:46.803Z,1034.60
2023-01-23T11:00:46.832Z,1034.65
2023-01-23T11:01:56.756Z,1034.59
2023-01-23T11:02:47.847Z,1034.63
2023-01-23T11:03:46.744Z,1034.60
2023-01-23T11:04:54.538Z,1034.56
2023-01-23T11:05:52.843Z,1034.59
2023-01-23T11:06:47.715Z,1034.52
2023-01-23T11:07:46.728Z,1034.57
2023-01-23T11:08:46.745Z,1034.56
2023-01-23T11:09:46.792Z,1034.53
2023-01-23T11:10:46.688Z,1034.49
2023-01-23T11:11:46.704Z,1034.52
2023-01-23T11:12:46.651Z,1034.48
2023-01-23T11:13:46.698Z,1034.54
2023-01-23T11:14:46.626Z,1034.49
2023-01-23T11:15:46.622Z,1034.52
2023-01-23T11:16:46.611Z,1034.48
2023-01-23T11:17:46.602Z,1034.53
2023-01-23T11:18:46.601Z,1034.49
2023-01-23T11:19:46.616Z,1034.44
2023-01-23T11:20:46.683Z,1034.42
2023-01-23T11:21:46.567Z,1034.43
2023-01-23T11:22:46.545Z,1034.46
2023-01-23T11:23:46.534Z,1034.44
2023-01-23T11:24:46.523Z,1034.42
2023-01-23T11:25:46.569Z,1034.43
2023-01-23T11:26:46.507Z,1034.43
2023-01-23T11:27:46.522Z,1034.43
2023-01-23T11:28:46.487Z,1034.38
2023-01-23T11:29:46.487Z,1034.41
2023-01-23T11:30:46.568Z,1034.36
2023-01-23T11:31:46.624Z,1034.31
2023-01-23T11:32:46.432Z,1034.35
2023-01-23T11:33:46.425Z,1034.31
2023-01-23T11:34:46.416Z,1034.36
2023-01-23T11:35:46.421Z,1034.38
2023-01-23T11:36:46.513Z,1034.39
2023-01-23T11:37:46.384Z,1034.38
2023-01-23T11:38:52.599Z,1034.40
2023-01-23T11:39:47.363Z,1034.44
2023-01-23T11:40:46.377Z,1034.43
2023-01-23T11:41:46.371Z,1034.36
2023-01-23T11:42:46.358Z,1034.32
2023-01-23T11:43:46.328Z,1034.27
2023-01-23T11:44:46.887Z,1034.33
2023-01-23T11:45:46.307Z,1034.34
2023-01-23T11:46:46.298Z,1034.38
2023-01-23T11:47:46.289Z,1034.38
2023-01-23T11:48:46.270Z,1034.32
2023-01-23T11:49:46.271Z,1034.29
2023-01-23T11:50:55.003Z,1034.32
2023-01-23T11:51:47.239Z,1034.26
2023-01-23T11:52:46.353Z,1034.25
2023-01-23T11:53:46.268Z,1034.25
2023-01-23T11:54:46.213Z,1034.25
2023-01-23T11:55:46.209Z,1034.18
2023-01-23T11:56:46.202Z,1034.23
2023-01-23T11:57:46.188Z,1034.18
2023-01-23T11:58:50.328Z,1034.17
2023-01-23T11:59:46.185Z,1034.15
2023-01-23T12:00:46.534Z,1034.21
2023-01-23T12:01:55.028Z,1034.17
2023-01-23T12:02:47.174Z,1034.21
2023-01-23T12:03:46.200Z,1034.15
2023-01-23T12:04:46.135Z,1034.14
2023-01-23T12:05:46.113Z,1034.10